Terminal Aerodrome Forecast
Issued by NWS Wilmington, NC

Home | Current Version | Previous Version | Text Only | Print | Product List | Glossary On
Versions: 1 2 3 4 5 6 7 8 9 10 11 12 13 14 15 16 17 18 19
000
FTUS42 KILM 050540
TAFMYR
TAF
KMYR 050540Z 0506/0606 25003KT 5SM BR SCT250
      TEMPO 0508/0512 00000KT 2SM BR SKC
     FM051300 24007KT 5SM HZ SCT045
     FM051700 20014G19KT P6SM SCT040
     FM060100 22012KT P6SM BKN250
      AMD LTD TO CLD VIS AND WIND 0506/0510=

USA.gov is the U.S. government's official web portal to all federal, state and local government web resources and services.